createdAt,value
2018-11-29T00:01:20.922Z,13.00
2018-11-29T00:03:49.916Z,14.80
2018-11-29T00:06:18.911Z,14.33
2018-11-29T00:08:48.000Z,14.13
2018-11-29T00:11:17.117Z,13.80
2018-11-29T00:13:46.087Z,13.40
2018-11-29T00:16:15.200Z,13.17
2018-11-29T00:18:44.247Z,14.23
2018-11-29T00:21:13.196Z,14.63
2018-11-29T00:23:42.185Z,16.07
2018-11-29T00:26:11.163Z,15.60
2018-11-29T00:28:40.149Z,14.77
2018-11-29T00:31:09.260Z,14.73
2018-11-29T00:33:38.252Z,13.77
2018-11-29T00:36:07.247Z,14.07
2018-11-29T00:38:36.225Z,14.97
2018-11-29T00:41:05.465Z,15.53
2018-11-29T00:43:34.459Z,13.43
2018-11-29T00:46:03.466Z,14.53
2018-11-29T00:48:32.427Z,14.10
2018-11-29T00:51:01.429Z,14.50
2018-11-29T00:53:30.395Z,15.53
2018-11-29T00:55:59.406Z,16.00
2018-11-29T00:58:28.398Z,14.23
2018-11-29T01:00:57.387Z,15.00
2018-11-29T01:03:26.378Z,14.20
2018-11-29T01:05:55.440Z,14.13
2018-11-29T01:08:24.449Z,14.63
2018-11-29T01:10:53.438Z,15.07
2018-11-29T01:13:22.415Z,14.70
2018-11-29T01:15:51.458Z,14.20
2018-11-29T01:18:20.462Z,15.50
2018-11-29T01:20:49.448Z,14.80
2018-11-29T01:23:18.441Z,14.83
2018-11-29T01:25:47.462Z,14.40
2018-11-29T01:28:16.459Z,14.60
2018-11-29T01:30:45.453Z,15.20
2018-11-29T01:33:14.417Z,14.20
2018-11-29T01:35:43.411Z,15.13
2018-11-29T01:38:12.405Z,14.50
2018-11-29T01:40:41.456Z,14.07
2018-11-29T01:43:10.601Z,14.47
2018-11-29T01:45:39.603Z,14.23
2018-11-29T01:48:08.586Z,14.70
2018-11-29T01:50:37.593Z,14.43
2018-11-29T01:53:06.604Z,15.93
2018-11-29T01:55:35.574Z,16.07
2018-11-29T01:58:04.587Z,14.50
2018-11-29T02:00:33.611Z,15.70
2018-11-29T02:03:02.611Z,14.47
2018-11-29T02:05:31.600Z,15.03
2018-11-29T02:08:00.565Z,15.23
2018-11-29T02:10:35.008Z,13.90
2018-11-29T02:13:03.970Z,16.67
2018-11-29T02:15:32.966Z,14.40
2018-11-29T02:18:01.974Z,15.10
2018-11-29T02:20:30.985Z,16.57
2018-11-29T02:22:59.957Z,15.10
2018-11-29T02:25:28.972Z,14.83
2018-11-29T02:27:58.005Z,16.03
2018-11-29T02:30:26.991Z,16.30
2018-11-29T02:32:55.994Z,15.57
2018-11-29T02:35:24.987Z,15.40
2018-11-29T02:37:53.971Z,15.40
2018-11-29T02:40:22.940Z,16.77
2018-11-29T02:42:52.119Z,15.53
2018-11-29T02:45:23.394Z,14.17
2018-11-29T02:47:52.393Z,16.17
2018-11-29T02:50:21.393Z,14.33
2018-11-29T02:52:50.419Z,16.27
2018-11-29T02:55:20.468Z,15.77
2018-11-29T02:57:49.445Z,14.33
2018-11-29T03:00:18.909Z,16.20
2018-11-29T03:02:47.985Z,15.23
2018-11-29T03:05:17.599Z,14.63
2018-11-29T03:07:46.564Z,15.93
2018-11-29T03:10:20.396Z,15.67
2018-11-29T03:12:49.419Z,15.93
2018-11-29T03:15:18.374Z,16.57
2018-11-29T03:17:47.333Z,15.97
2018-11-29T03:20:16.323Z,14.17
2018-11-29T03:22:45.311Z,16.43
2018-11-29T03:25:16.076Z,15.10
2018-11-29T03:27:45.335Z,14.73
2018-11-29T03:30:15.223Z,15.80
2018-11-29T03:32:44.258Z,15.50
2018-11-29T03:35:13.994Z,16.57
2018-11-29T03:37:42.989Z,14.90
2018-11-29T03:40:13.777Z,15.87
2018-11-29T03:42:42.792Z,16.33
2018-11-29T03:45:12.737Z,15.50
2018-11-29T03:47:42.497Z,16.30
2018-11-29T03:50:13.582Z,17.80
2018-11-29T03:52:42.587Z,16.47
2018-11-29T03:55:12.130Z,15.80
2018-11-29T03:57:41.131Z,15.77
2018-11-29T04:00:15.754Z,17.00
2018-11-29T04:02:45.591Z,16.00
2018-11-29T04:05:14.597Z,14.00
2018-11-29T04:07:43.596Z,15.43
2018-11-29T04:10:14.625Z,16.17
2018-11-29T04:12:43.696Z,16.57
2018-11-29T04:15:13.528Z,16.70
2018-11-29T04:17:42.505Z,17.07
2018-11-29T04:20:14.397Z,16.97
2018-11-29T04:22:43.381Z,16.03
2018-11-29T04:25:13.297Z,15.67
2018-11-29T04:27:42.308Z,17.57
2018-11-29T04:30:13.319Z,16.37
2018-11-29T04:32:42.333Z,16.23
2018-11-29T04:35:11.652Z,16.77
2018-11-29T04:37:40.660Z,15.53
2018-11-29T04:40:14.737Z,15.70
2018-11-29T04:42:43.806Z,15.90
2018-11-29T04:45:13.867Z,16.70
2018-11-29T04:47:42.876Z,15.97
2018-11-29T04:50:11.851Z,15.40
2018-11-29T04:52:40.871Z,15.63
2018-11-29T04:55:10.285Z,16.57
2018-11-29T04:57:39.321Z,17.27
2018-11-29T05:00:15.711Z,15.93
2018-11-29T05:02:45.820Z,14.27
2018-11-29T05:05:14.886Z,15.97
2018-11-29T05:07:43.880Z,15.83
2018-11-29T05:10:17.822Z,14.17
2018-11-29T05:12:47.313Z,16.47
2018-11-29T05:15:16.319Z,17.07
2018-11-29T05:17:45.307Z,17.33
2018-11-29T05:20:14.282Z,16.70
2018-11-29T05:22:43.290Z,17.40
2018-11-29T05:25:12.296Z,17.37
2018-11-29T05:27:41.324Z,17.63
2018-11-29T05:30:12.586Z,16.63
2018-11-29T05:32:41.568Z,17.63
2018-11-29T05:35:11.528Z,15.93
2018-11-29T05:37:40.623Z,16.80
2018-11-29T05:40:11.799Z,17.90
2018-11-29T05:42:40.797Z,16.67
2018-11-29T05:45:10.790Z,16.77
2018-11-29T05:47:39.798Z,17.10
2018-11-29T05:50:10.202Z,17.10
2018-11-29T05:52:39.404Z,16.40
2018-11-29T05:55:10.024Z,17.03
2018-11-29T05:57:39.007Z,17.07
2018-11-29T06:00:12.359Z,16.87
2018-11-29T06:02:41.431Z,17.57
2018-11-29T06:05:11.518Z,16.33
2018-11-29T06:07:40.488Z,16.57
2018-11-29T06:10:10.151Z,17.20
2018-11-29T06:12:39.196Z,15.33
2018-11-29T06:15:10.514Z,17.53
2018-11-29T06:17:39.612Z,16.87
2018-11-29T06:20:11.929Z,16.13
2018-11-29T06:22:41.745Z,16.90
2018-11-29T06:25:11.118Z,16.93
2018-11-29T06:27:40.352Z,17.97
2018-11-29T06:30:13.811Z,17.27
2018-11-29T06:32:42.875Z,17.70
2018-11-29T06:35:15.816Z,16.57
2018-11-29T06:37:45.438Z,17.77
2018-11-29T06:40:17.080Z,17.77
2018-11-29T06:42:46.100Z,16.07
2018-11-29T06:45:19.919Z,17.63
2018-11-29T06:47:49.991Z,17.90
2018-11-29T06:50:18.986Z,17.43
2018-11-29T06:52:49.131Z,16.97
2018-11-29T06:55:21.059Z,16.23
2018-11-29T06:57:50.124Z,16.87
2018-11-29T07:00:24.287Z,16.20
2018-11-29T07:02:53.368Z,17.60
2018-11-29T07:05:28.603Z,16.73
2018-11-29T07:07:57.630Z,17.10
2018-11-29T07:10:32.061Z,17.37
2018-11-29T07:13:02.255Z,16.77
2018-11-29T07:15:31.324Z,16.10
2018-11-29T07:18:02.849Z,19.20
2018-11-29T07:20:31.823Z,18.33
2018-11-29T07:23:02.069Z,16.40
2018-11-29T07:25:31.145Z,17.37
2018-11-29T07:28:00.160Z,17.30
2018-11-29T07:30:29.219Z,16.43
2018-11-29T07:32:58.859Z,16.87
2018-11-29T07:35:27.870Z,16.43
2018-11-29T07:37:57.748Z,16.20
2018-11-29T07:40:26.756Z,14.93
2018-11-29T07:42:57.111Z,17.40
2018-11-29T07:45:26.176Z,17.27
2018-11-29T07:47:55.192Z,17.27
2018-11-29T07:50:24.390Z,17.33
2018-11-29T07:52:53.551Z,17.30
2018-11-29T07:55:22.905Z,16.20
2018-11-29T07:57:52.842Z,16.60
2018-11-29T08:00:21.892Z,18.03
2018-11-29T08:02:51.392Z,17.07
2018-11-29T08:05:20.519Z,17.17
2018-11-29T08:07:50.516Z,17.37
2018-11-29T08:10:19.852Z,16.47
2018-11-29T08:12:49.885Z,17.03
2018-11-29T08:15:21.109Z,17.10
2018-11-29T08:17:50.207Z,16.17
2018-11-29T08:20:21.090Z,17.03
2018-11-29T08:22:50.112Z,15.70
2018-11-29T08:25:19.105Z,17.10
2018-11-29T08:27:48.102Z,16.40
2018-11-29T08:30:17.226Z,17.17
2018-11-29T08:32:46.268Z,18.23
2018-11-29T08:35:15.914Z,17.30
2018-11-29T08:37:46.065Z,18.10
2018-11-29T08:40:19.349Z,17.40
2018-11-29T08:42:48.381Z,16.80
2018-11-29T08:45:17.374Z,16.93
2018-11-29T08:47:46.654Z,16.70
2018-11-29T08:50:16.069Z,15.70
2018-11-29T08:52:45.963Z,17.27
2018-11-29T08:55:17.024Z,16.97
2018-11-29T08:57:47.387Z,17.13
2018-11-29T09:00:17.419Z,16.37
2018-11-29T09:02:46.589Z,16.23
2018-11-29T09:05:15.692Z,16.07
2018-11-29T09:07:45.707Z,16.83
2018-11-29T09:10:18.822Z,16.80
2018-11-29T09:12:47.824Z,16.37
2018-11-29T09:15:17.332Z,15.20
2018-11-29T09:17:46.496Z,15.30
2018-11-29T09:20:18.695Z,15.67
2018-11-29T09:22:47.747Z,16.43
2018-11-29T09:25:17.914Z,15.90
2018-11-29T09:27:46.971Z,16.43
2018-11-29T09:30:23.378Z,16.03
2018-11-29T09:32:53.467Z,14.63
2018-11-29T09:35:22.514Z,15.03
2018-11-29T09:37:51.582Z,15.80
2018-11-29T09:40:21.772Z,16.13
2018-11-29T09:42:53.308Z,15.10
2018-11-29T09:45:23.179Z,15.60
2018-11-29T09:47:53.299Z,16.10
2018-11-29T09:50:22.476Z,15.50
2018-11-29T09:52:51.511Z,16.00
2018-11-29T09:55:20.520Z,14.37
2018-11-29T09:57:50.278Z,14.57
2018-11-29T10:00:28.050Z,14.33
2018-11-29T10:03:01.372Z,13.93
2018-11-29T10:05:30.402Z,14.53
2018-11-29T10:07:59.369Z,14.90
2018-11-29T10:10:28.333Z,13.47
2018-11-29T10:12:57.322Z,14.70
2018-11-29T10:15:26.309Z,14.93
2018-11-29T10:17:55.300Z,14.33
2018-11-29T10:20:24.368Z,14.33
2018-11-29T10:22:53.432Z,14.03
2018-11-29T10:25:22.414Z,13.27
2018-11-29T10:27:54.272Z,14.43
2018-11-29T10:30:25.592Z,14.13
2018-11-29T10:33:18.435Z,13.83
2018-11-29T10:35:47.598Z,14.17
2018-11-29T10:38:17.304Z,14.23
2018-11-29T10:40:46.405Z,15.20
2018-11-29T10:43:15.636Z,15.13
2018-11-29T10:45:44.642Z,14.50
2018-11-29T10:48:16.188Z,14.20
2018-11-29T10:50:45.225Z,14.20
2018-11-29T10:53:14.285Z,13.33
2018-11-29T10:55:43.266Z,13.27
2018-11-29T10:58:12.263Z,14.40
2018-11-29T11:00:47.857Z,14.23
2018-11-29T11:03:19.678Z,13.33
2018-11-29T11:05:50.817Z,13.70
2018-11-29T11:08:20.853Z,13.27
2018-11-29T11:10:49.929Z,12.67
2018-11-29T11:13:23.944Z,13.30
2018-11-29T11:15:52.970Z,12.67
2018-11-29T11:18:21.963Z,13.60
2018-11-29T11:20:51.042Z,13.87
2018-11-29T11:23:20.019Z,12.43
2018-11-29T11:25:49.068Z,13.17
2018-11-29T11:28:18.058Z,13.57
2018-11-29T11:30:47.049Z,12.23
2018-11-29T11:33:16.787Z,12.03
2018-11-29T11:35:45.857Z,13.50
2018-11-29T11:38:14.863Z,13.40
2018-11-29T11:40:43.886Z,12.87
2018-11-29T11:43:12.903Z,12.70
2018-11-29T11:45:41.931Z,13.83
2018-11-29T11:48:10.918Z,12.17
2018-11-29T11:50:39.906Z,13.40
2018-11-29T11:53:09.977Z,12.43
2018-11-29T11:55:38.966Z,12.80
2018-11-29T11:58:08.615Z,13.27
2018-11-29T12:00:38.210Z,12.97
2018-11-29T12:03:10.654Z,10.47
2018-11-29T12:05:39.650Z,11.90
2018-11-29T12:08:08.668Z,12.57
2018-11-29T12:10:38.454Z,11.63
2018-11-29T12:13:08.149Z,12.00
2018-11-29T12:15:37.898Z,12.23
2018-11-29T12:18:09.658Z,12.37
2018-11-29T12:20:38.661Z,11.60
2018-11-29T12:23:08.463Z,11.73
2018-11-29T12:25:37.458Z,11.83
2018-11-29T12:28:06.664Z,12.13
2018-11-29T12:30:38.305Z,11.90
2018-11-29T12:33:08.105Z,12.57
2018-11-29T12:35:37.138Z,11.70
2018-11-29T12:38:06.597Z,12.13
2018-11-29T12:40:35.781Z,11.37
2018-11-29T12:43:04.826Z,11.03
2018-11-29T12:45:35.902Z,11.10
2018-11-29T12:48:07.699Z,11.40
2018-11-29T12:50:38.989Z,11.53
2018-11-29T12:53:08.922Z,11.43
2018-11-29T12:55:43.281Z,11.53
2018-11-29T12:58:12.272Z,12.13
2018-11-29T13:00:41.280Z,11.17
2018-11-29T13:03:10.984Z,11.10
2018-11-29T13:05:40.050Z,11.70
2018-11-29T13:08:09.672Z,11.10
2018-11-29T13:10:38.669Z,12.13
2018-11-29T13:13:07.774Z,11.10
2018-11-29T13:15:36.831Z,11.97
2018-11-29T13:18:08.182Z,10.20
2018-11-29T13:20:37.286Z,11.17
2018-11-29T13:23:06.724Z,12.03
2018-11-29T13:25:35.741Z,11.03
2018-11-29T13:28:04.837Z,11.17
2018-11-29T13:30:34.150Z,12.00
2018-11-29T13:33:03.174Z,10.93
2018-11-29T13:35:34.483Z,11.20
2018-11-29T13:38:10.200Z,10.93
2018-11-29T13:40:47.071Z,11.13
2018-11-29T13:43:23.501Z,10.83
2018-11-29T13:46:02.423Z,11.07
2018-11-29T13:48:31.440Z,11.33
2018-11-29T13:51:01.457Z,11.10
2018-11-29T13:53:30.515Z,11.27
2018-11-29T13:55:59.583Z,11.53
2018-11-29T13:58:28.619Z,10.17
2018-11-29T14:00:57.627Z,11.33
2018-11-29T14:03:26.620Z,10.47
2018-11-29T14:05:55.734Z,12.30
2018-11-29T14:08:24.742Z,11.40
2018-11-29T14:10:53.788Z,11.37
2018-11-29T14:13:22.776Z,10.73
2018-11-29T14:15:51.780Z,10.27
2018-11-29T14:18:20.847Z,10.17
2018-11-29T14:20:49.835Z,9.83
2018-11-29T14:23:23.172Z,10.97
2018-11-29T14:25:56.416Z,10.30
2018-11-29T14:28:25.499Z,10.13
2018-11-29T14:30:54.518Z,9.47
2018-11-29T14:33:23.578Z,9.60
2018-11-29T14:35:52.693Z,10.70
2018-11-29T14:38:21.740Z,10.13
2018-11-29T14:40:50.773Z,8.87
2018-11-29T14:43:19.794Z,9.27
2018-11-29T14:45:57.443Z,9.63
2018-11-29T14:48:26.445Z,9.83
2018-11-29T14:50:55.439Z,10.30
2018-11-29T14:53:24.455Z,11.20
2018-11-29T14:55:53.503Z,9.23
2018-11-29T14:58:23.797Z,9.23
2018-11-29T15:00:52.779Z,9.20
2018-11-29T15:03:22.648Z,9.20
2018-11-29T15:05:51.677Z,9.70
2018-11-29T15:08:20.773Z,10.27
2018-11-29T15:10:50.679Z,10.17
2018-11-29T15:13:19.701Z,7.47
2018-11-29T15:15:49.850Z,9.63
2018-11-29T15:18:26.686Z,9.50
2018-11-29T15:20:55.677Z,9.47
2018-11-29T15:23:24.661Z,9.50
2018-11-29T15:25:53.690Z,10.00
2018-11-29T15:28:22.671Z,8.23
2018-11-29T15:30:51.732Z,8.90
2018-11-29T15:33:20.777Z,8.83
2018-11-29T15:35:49.830Z,8.63
2018-11-29T15:38:18.812Z,8.50
2018-11-29T15:40:47.811Z,8.80
2018-11-29T15:43:16.823Z,9.63
2018-11-29T15:45:45.900Z,9.50
2018-11-29T15:48:15.010Z,9.53
2018-11-29T15:50:44.031Z,8.53
2018-11-29T15:53:13.076Z,8.53
2018-11-29T15:55:42.127Z,8.90
2018-11-29T15:58:11.155Z,9.80
2018-11-29T16:00:40.169Z,8.37
2018-11-29T16:03:09.666Z,8.33
2018-11-29T16:05:41.249Z,9.17
2018-11-29T16:08:08.597Z,8.37
2018-11-29T16:10:44.402Z,8.87
2018-11-29T16:13:28.200Z,8.67
2018-11-29T16:15:57.194Z,8.97
2018-11-29T16:18:26.219Z,8.93
2018-11-29T16:20:55.225Z,8.80
2018-11-29T16:23:24.337Z,8.77
2018-11-29T16:25:53.739Z,8.73
2018-11-29T16:28:24.124Z,8.63
2018-11-29T16:30:55.112Z,8.53
2018-11-29T16:33:25.684Z,8.93
2018-11-29T16:35:54.717Z,8.40
2018-11-29T16:38:23.828Z,9.23
2018-11-29T16:40:53.325Z,7.97
2018-11-29T16:43:22.333Z,8.47
2018-11-29T16:45:51.330Z,8.23
2018-11-29T16:48:20.384Z,8.00
2018-11-29T16:50:49.432Z,8.50
2018-11-29T16:53:18.450Z,7.97
2018-11-29T16:55:47.480Z,7.97
2018-11-29T16:58:18.271Z,7.43
2018-11-29T17:00:47.301Z,8.17
2018-11-29T17:03:16.316Z,8.17
2018-11-29T17:05:45.387Z,8.00
2018-11-29T17:08:14.585Z,8.03
2018-11-29T17:10:43.581Z,8.03
2018-11-29T17:13:15.335Z,8.43
2018-11-29T17:15:44.350Z,8.33
2018-11-29T17:18:13.363Z,7.53
2018-11-29T17:20:42.394Z,8.57
2018-11-29T17:26:29.288Z,7.73
2018-11-29T17:28:58.281Z,8.20
2018-11-29T17:31:27.324Z,7.10
2018-11-29T17:34:25.948Z,7.90
2018-11-29T17:36:57.046Z,7.27
2018-11-29T17:39:33.872Z,7.63
2018-11-29T17:42:03.045Z,7.43
2018-11-29T17:44:32.074Z,7.03
2018-11-29T17:47:01.221Z,7.97
2018-11-29T17:49:30.323Z,7.70
2018-11-29T17:51:59.526Z,7.67
2018-11-29T17:54:28.758Z,7.33
2018-11-29T17:56:58.528Z,7.20
2018-11-29T17:59:27.953Z,8.17
2018-11-29T18:01:57.107Z,6.93
2018-11-29T18:04:26.488Z,8.07
2018-11-29T18:06:56.670Z,6.67
2018-11-29T18:09:25.865Z,7.87
2018-11-29T18:11:55.095Z,7.27
2018-11-29T18:14:24.287Z,7.47
2018-11-29T18:16:54.396Z,6.93
2018-11-29T18:19:23.673Z,6.97
2018-11-29T18:21:52.969Z,7.07
2018-11-29T18:24:22.087Z,7.27
2018-11-29T18:26:51.341Z,7.27
2018-11-29T18:29:20.683Z,7.47
2018-11-29T18:31:49.744Z,6.40
2018-11-29T18:34:18.781Z,7.53
2018-11-29T18:36:47.975Z,7.03
2018-11-29T18:39:17.023Z,6.80
2018-11-29T18:41:47.230Z,7.23
2018-11-29T18:44:16.318Z,6.93
2018-11-29T18:46:45.468Z,7.27
2018-11-29T18:49:14.621Z,6.47
2018-11-29T18:51:43.739Z,6.67
2018-11-29T18:54:12.932Z,6.37
2018-11-29T18:56:42.093Z,7.20
2018-11-29T18:59:11.986Z,6.33
2018-11-29T19:01:41.130Z,6.80
2018-11-29T19:04:10.185Z,6.67
2018-11-29T19:06:39.257Z,7.40
2018-11-29T19:09:08.685Z,6.67
2018-11-29T19:11:38.192Z,7.70
2018-11-29T19:14:07.276Z,6.50
2018-11-29T19:16:36.388Z,7.13
2018-11-29T19:19:05.625Z,7.13
2018-11-29T19:21:34.856Z,6.87
2018-11-29T19:24:04.007Z,6.27
2018-11-29T19:26:33.183Z,7.53
2018-11-29T19:29:02.273Z,6.40
2018-11-29T19:31:31.376Z,6.93
2018-11-29T19:34:01.548Z,7.10
2018-11-29T19:36:29.879Z,6.27
2018-11-29T19:38:59.071Z,7.13
2018-11-29T19:41:28.254Z,7.47
2018-11-29T19:43:57.528Z,6.77
2018-11-29T19:46:26.642Z,6.57
2018-11-29T19:48:55.725Z,7.10
2018-11-29T19:51:24.826Z,7.23
2018-11-29T19:53:53.986Z,6.13
2018-11-29T19:56:23.761Z,6.67
2018-11-29T19:58:53.033Z,7.30
2018-11-29T20:01:28.927Z,6.37
2018-11-29T20:03:58.043Z,6.87
2018-11-29T20:06:27.179Z,7.23
2018-11-29T20:08:56.291Z,7.90
2018-11-29T20:11:25.448Z,6.83
2018-11-29T20:13:54.668Z,6.57
2018-11-29T20:16:23.818Z,6.63
2018-11-29T20:18:53.163Z,6.87
2018-11-29T20:21:22.436Z,6.57
2018-11-29T20:23:51.644Z,6.37
2018-11-29T20:26:20.861Z,6.90
2018-11-29T20:28:51.177Z,7.20
2018-11-29T20:31:20.698Z,6.73
2018-11-29T20:33:49.823Z,6.97
2018-11-29T20:36:18.954Z,6.27
2018-11-29T20:38:48.035Z,6.23
2018-11-29T20:41:17.186Z,6.43
2018-11-29T20:43:46.421Z,5.63
2018-11-29T20:46:15.616Z,5.83
2018-11-29T20:48:45.636Z,6.23
2018-11-29T20:51:14.747Z,6.03
2018-11-29T20:53:43.885Z,6.30
2018-11-29T20:56:14.246Z,6.63
2018-11-29T20:58:43.388Z,6.13
2018-11-29T21:01:12.496Z,5.77
2018-11-29T21:03:41.655Z,5.87
2018-11-29T21:06:12.665Z,6.47
2018-11-29T21:08:41.942Z,6.50
2018-11-29T21:11:12.715Z,6.13
2018-11-29T21:13:42.229Z,6.47
2018-11-29T21:16:11.213Z,5.87
2018-11-29T21:18:40.343Z,6.37
2018-11-29T21:21:09.372Z,5.80
2018-11-29T21:23:38.498Z,6.10
2018-11-29T21:26:07.690Z,6.00
2018-11-29T21:28:36.762Z,6.07
2018-11-29T21:31:06.148Z,7.07
2018-11-29T21:33:35.270Z,6.30
2018-11-29T21:36:04.474Z,6.27
2018-11-29T21:38:33.520Z,5.87
2018-11-29T21:41:04.205Z,6.73
2018-11-29T21:43:33.362Z,6.83
2018-11-29T21:46:02.637Z,6.83
2018-11-29T21:48:31.647Z,6.07
2018-11-29T21:51:00.719Z,6.30
2018-11-29T21:53:29.746Z,5.90
2018-11-29T21:55:58.874Z,6.70
2018-11-29T21:58:27.932Z,5.93
2018-11-29T22:00:56.958Z,6.13
2018-11-29T22:03:26.038Z,6.00
2018-11-29T22:05:55.072Z,6.23
2018-11-29T22:08:24.085Z,6.10
2018-11-29T22:10:53.214Z,6.33
2018-11-29T22:13:23.246Z,6.00
2018-11-29T22:15:52.322Z,5.97
2018-11-29T22:18:22.288Z,5.87
2018-11-29T22:20:57.013Z,5.70
2018-11-29T22:23:26.075Z,5.80
2018-11-29T22:25:57.135Z,5.73
2018-11-29T22:28:26.186Z,5.83
2018-11-29T22:30:55.820Z,5.53
2018-11-29T22:33:24.904Z,5.60
2018-11-29T22:35:54.029Z,5.53
2018-11-29T22:38:23.120Z,5.33
2018-11-29T22:40:52.207Z,5.80
2018-11-29T22:43:21.183Z,5.90
2018-11-29T22:45:50.224Z,5.80
2018-11-29T22:48:19.212Z,4.87
2018-11-29T22:50:48.366Z,5.10
2018-11-29T22:53:17.338Z,5.17
2018-11-29T22:55:46.323Z,5.07
2018-11-29T22:58:15.336Z,5.53
2018-11-29T23:00:49.754Z,5.97
2018-11-29T23:03:18.748Z,5.03
2018-11-29T23:05:47.754Z,5.70
2018-11-29T23:08:16.755Z,4.83
2018-11-29T23:10:45.755Z,5.40
2018-11-29T23:13:14.749Z,4.90
2018-11-29T23:15:43.762Z,5.33
2018-11-29T23:18:12.754Z,4.83
2018-11-29T23:20:42.719Z,4.77
2018-11-29T23:23:11.683Z,5.10
2018-11-29T23:25:40.689Z,5.07
2018-11-29T23:28:09.659Z,5.13
2018-11-29T23:30:38.704Z,4.90
2018-11-29T23:33:07.687Z,5.20
2018-11-29T23:35:36.710Z,4.90
2018-11-29T23:38:06.794Z,4.80
2018-11-29T23:40:35.772Z,4.93
2018-11-29T23:43:04.955Z,4.70
2018-11-29T23:45:33.963Z,5.40
2018-11-29T23:48:02.938Z,5.07
2018-11-29T23:50:31.944Z,4.90
2018-11-29T23:53:00.941Z,5.10
2018-11-29T23:55:30.086Z,4.90
2018-11-29T23:57:59.071Z,4.77
